Latest Weather Observations for Geraldton Airport

IDW60801

Issued at 11:03 am WST Friday 18 August 2017 (issued every 30 minutes, with the page automatically refreshed every 10 minutes)

About weather observations | Map of weather stations | Latest weather observations for WA | Other Formats
Station Details ID: 008315 Name: GERALDTON AIRPORT Lat: -28.80 Lon: 114.70 Height: 29.7 m
Data from the previous 72 hours. | See also: Recent months at Geraldton Airport
Date/Time
WST
Temp
°C
App
Temp
°C
Dew
Point
°C
Rel
Hum
%
Delta-T
°C
Wind Press
QNH
hPa
Press
MSL
hPa
Rain since
9am
mm
Dir  Spd
km/h
Gust
km/h
Spd
kts
Gust
kts
18/11:00am 18.8 16.2 6.0 43 6.3 NNE 9 13 5 7 1016.7 - 0.0
18/10:30am 16.9 15.1 7.9 55 4.5 NE 7 11 4 6 1017.0 - 0.0
18/10:00am 14.9 12.3 7.7 62 3.6 NNE 11 13 6 7 1017.0 - 0.0
18/09:30am 12.9 10.0 6.7 66 3.0 NE 11 15 6 8 1017.2 - 0.0
18/09:00am 11.2 7.1 6.4 72 2.3 NE 17 22 9 12 1017.3 1017.3 0.0
18/08:30am 9.4 4.8 5.7 78 1.7 NE 19 22 10 12 1017.3 - 0.0
18/08:00am 7.7 2.9 4.4 79 1.4 NNE 19 24 10 13 1017.2 - 0.0
18/07:30am 6.2 1.5 3.3 82 1.2 NNE 17 22 9 12 1017.4 - 0.0
18/07:00am 5.5 0.4 2.9 83 1.1 NNE 19 20 10 11 1017.3 - 0.0
18/06:30am 5.2 0.1 3.3 87 0.8 NNE 19 20 10 11 1017.2 - 0.0
18/06:00am 5.0 -0.1 3.0 87 0.8 NNE 19 22 10 12 1017.0 1017.0 0.0
18/05:30am 4.7 -0.6 3.2 90 0.6 NNE 20 26 11 14 1016.9 - 0.0
18/05:00am 4.8 -0.4 3.6 92 0.5 NNE 20 26 11 14 1016.8 - 0.0
18/04:30am 5.1 0.2 3.9 92 0.5 NNE 19 20 10 11 1017.0 - 0.0
18/04:00am 5.4 0.5 4.2 92 0.5 NNE 19 20 10 11 1017.1 - 0.0
18/03:30am 5.3 0.4 4.1 92 0.5 NNE 19 22 10 12 1017.2 - 0.0
18/03:00am 4.9 -0.1 3.7 92 0.5 NE 19 20 10 11 1017.3 1017.3 0.0
18/02:30am 5.1 0.9 3.9 92 0.5 NE 15 17 8 9 1017.5 - 0.0
18/02:00am 5.1 2.1 4.2 94 0.4 NE 9 13 5 7 1017.8 - 0.0
18/01:30am 5.3 1.6 4.4 94 0.4 NE 13 15 7 8 1017.8 - 0.0
18/01:00am 5.3 2.0 4.4 94 0.4 NE 11 13 6 7 1018.2 - 0.0
18/12:30am 5.9 1.5 4.8 93 0.5 NNE 17 19 9 10 1018.3 - 0.0
18/12:00am 6.1 3.7 5.2 94 0.4 NNE 7 15 4 8 1018.5 1018.6 0.0
 
Date/Time
WST
Temp
°C
App
Temp
°C
Dew
Point
°C
Rel
Hum
%
Delta-T
°C
Wind Press
QNH
hPa
Press
MSL
hPa
Rain since
9am
mm
Dir  Spd
km/h
Gust
km/h
Spd
kts
Gust
kts
17/11:30pm 6.9 2.7 5.6 91 0.6 NNE 17 19 9 10 1018.5 - 0.0
17/11:00pm 6.1 2.2 5.2 94 0.4 NNE 15 17 8 9 1018.6 - 0.0
17/10:30pm 6.0 2.8 5.3 95 0.3 NE 11 13 6 7 1018.8 - 0.0
17/10:00pm 6.5 3.0 5.6 94 0.4 NNE 13 15 7 8 1019.0 - 0.0
17/09:30pm 6.6 4.3 5.8 95 0.4 NNE 7 11 4 6 1019.0 - 0.0
17/09:00pm 6.7 4.4 5.8 94 0.4 NE 7 9 4 5 1018.9 1019.0 0.0
17/08:30pm 7.8 5.6 6.3 90 0.7 ENE 7 9 4 5 1018.7 - 0.0
17/08:00pm 9.2 8.4 6.7 84 1.2 CALM 0 0 0 0 1018.8 - 0.0
17/07:30pm 9.6 8.9 7.1 84 1.2 CALM 0 0 0 0 1018.6 - 0.0
17/07:00pm 11.2 9.2 6.9 75 2.0 SSW 7 9 4 5 1018.4 - 0.0
17/06:30pm 12.8 10.3 6.6 66 3.0 SSW 9 11 5 6 1018.2 - 0.0
17/06:00pm 13.5 11.0 6.7 63 3.3 SSW 9 13 5 7 1018.2 1018.3 0.0
17/05:30pm 14.7 12.1 7.6 62 3.5 S 11 15 6 8 1018.1 - 0.0
17/05:00pm 16.8 14.5 5.9 48 5.3 SE 7 13 4 7 1018.0 - 0.0
17/04:30pm 17.3 14.5 5.2 45 5.8 S 9 11 5 6 1018.2 - 0.0
17/04:00pm 17.7 16.0 7.4 51 5.2 ESE 6 11 3 6 1018.5 - 0.0
17/03:30pm 17.6 15.1 6.5 48 5.5 SE 9 15 5 8 1018.6 - 0.0
17/03:00pm 17.6 14.5 5.6 45 5.8 ESE 11 17 6 9 1018.7 1018.8 0.0
17/02:30pm 17.6 14.5 5.7 45 5.8 SE 11 19 6 10 1018.7 - 0.0
17/02:00pm 17.7 15.1 6.1 46 5.7 ESE 9 17 5 9 1018.9 - 0.0
17/01:30pm 17.3 14.4 4.6 43 6.0 E 9 17 5 9 1019.2 - 0.0
17/01:00pm 17.4 13.7 6.2 47 5.5 ENE 15 22 8 12 1019.7 - 0.0
17/12:30pm 16.9 12.7 5.5 47 5.5 NE 17 30 9 16 1020.3 - 0.0
17/12:00pm 16.5 12.0 7.0 53 4.7 NE 20 30 11 16 1020.8 1020.9 0.0
17/11:30am 15.8 10.3 5.8 51 4.8 ENE 24 32 13 17 1021.3 - 0.0
17/11:00am 15.2 8.9 5.8 53 4.5 NE 28 33 15 18 1021.7 - 0.0
17/10:30am 14.7 9.3 6.4 57 4.0 NE 24 33 13 18 1021.9 - 0.0
17/10:00am 13.8 7.5 5.8 58 3.8 NE 28 35 15 19 1022.0 - 0.0
17/09:30am 13.0 7.3 6.6 65 3.1 NE 26 30 14 16 1022.3 - 0.0
17/09:00am 11.3 7.2 8.0 80 1.6 NE 19 22 10 12 1022.2 1022.3 0.6
17/08:30am 9.6 5.7 7.0 84 1.2 NNE 17 20 9 11 1022.2 - 0.6
17/08:00am 8.2 4.1 6.2 87 0.9 NNE 17 20 9 11 1021.9 - 0.6
17/07:30am 6.7 2.4 5.4 91 0.6 NNE 17 19 9 10 1021.7 - 0.6
17/07:00am 6.1 1.7 4.7 91 0.6 NNE 17 19 9 10 1021.3 - 0.6
17/06:30am 5.6 1.5 4.6 93 0.4 NNE 15 17 8 9 1021.1 - 0.6
17/06:00am 5.5 0.7 4.6 94 0.4 NNE 19 20 10 11 1020.9 1021.0 0.6
17/05:30am 5.9 1.9 4.8 93 0.5 NNE 15 19 8 10 1020.8 - 0.6
17/05:00am 5.6 1.6 4.7 94 0.4 NE 15 17 8 9 1020.6 - 0.6
17/04:30am 5.9 1.9 4.8 93 0.5 NNE 15 17 8 9 1020.7 - 0.6
17/04:00am 6.4 2.9 5.3 93 0.5 NE 13 15 7 8 1020.6 - 0.6
17/03:30am 7.1 2.8 5.4 89 0.8 NE 17 19 9 10 1020.7 - 0.6
17/03:00am 7.3 3.5 5.8 90 0.7 NNE 15 15 8 8 1020.8 1020.9 0.6
17/02:30am 7.7 3.9 6.0 89 0.8 NNE 15 17 8 9 1020.9 - 0.6
17/02:00am 7.9 4.9 6.1 88 0.8 NE 11 13 6 7 1020.9 - 0.6
17/01:30am 8.0 4.7 6.2 88 0.8 NNE 13 15 7 8 1021.1 - 0.6
17/01:00am 8.1 5.5 6.1 87 0.9 ENE 9 11 5 6 1021.1 - 0.6
17/12:30am 8.1 5.9 6.4 89 0.8 E 7 11 4 6 1021.2 - 0.6
17/12:00am 9.6 6.9 7.3 85 1.1 ESE 11 13 6 7 1021.1 1021.2 0.6
 
Date/Time
WST
Temp
°C
App
Temp
°C
Dew
Point
°C
Rel
Hum
%
Delta-T
°C
Wind Press
QNH
hPa
Press
MSL
hPa
Rain since
9am
mm
Dir  Spd
km/h
Gust
km/h
Spd
kts
Gust
kts
16/11:30pm 10.0 7.0 7.5 84 1.2 SE 13 15 7 8 1021.3 - 0.6
16/11:00pm 9.6 6.7 8.2 91 0.7 ESE 13 13 7 7 1021.6 - 0.6
16/10:30pm 10.0 7.6 8.6 91 0.7 ESE 11 13 6 7 1021.7 - 0.6
16/10:00pm 10.9 9.2 9.7 92 0.6 SE 9 13 5 7 1021.9 - 0.6
16/09:30pm 11.1 9.4 9.7 91 0.7 ESE 9 9 5 5 1022.0 - 0.6
16/09:00pm 10.7 8.9 9.4 92 0.6 ESE 9 13 5 7 1021.9 1022.0 0.6
16/08:30pm 11.5 8.6 9.7 89 0.9 SE 15 20 8 11 1022.0 - 0.6
16/08:00pm 12.0 10.5 9.1 82 1.5 ESE 7 9 4 5 1021.7 - 0.6
16/07:30pm 11.7 8.9 8.5 81 1.6 SE 13 20 7 11 1021.4 - 0.6
16/07:00pm 12.1 9.4 9.1 82 1.5 S 13 15 7 8 1021.1 - 0.6
16/06:30pm 12.6 10.0 9.5 81 1.6 S 13 15 7 8 1020.7 - 0.6
16/06:00pm 13.8 10.4 10.4 80 1.8 S 19 30 10 16 1020.6 1020.7 0.6
16/05:30pm 14.8 11.8 9.4 70 2.8 S 15 20 8 11 1020.4 - 0.4
16/05:00pm 16.1 12.0 8.5 60 3.9 S 20 28 11 15 1020.1 - 0.4
16/04:30pm 16.6 12.4 7.6 55 4.5 SSW 19 24 10 13 1020.0 - 0.4
16/04:00pm 16.8 12.0 7.2 53 4.8 SSW 22 28 12 15 1020.0 - 0.4
16/03:30pm 16.1 12.0 10.2 68 3.1 S 22 32 12 17 1019.9 - 0.4
16/03:00pm 17.5 14.9 11.9 69 3.1 SSE 17 22 9 12 1019.8 1019.9 0.4
16/02:30pm 16.3 12.0 10.9 70 2.9 S 24 33 13 18 1019.9 - 0.4
16/02:00pm 16.8 12.5 10.6 67 3.3 S 24 32 13 17 1019.9 - 0.4
16/01:30pm 15.9 11.2 12.1 78 2.1 S 28 35 15 19 1020.1 - 0.4
16/01:00pm 17.1 12.6 11.4 69 3.1 WSW 26 39 14 21 1020.2 - 0.4
16/12:30pm 17.0 11.7 11.3 69 3.1 SSW 30 43 16 23 1020.5 - 0.2
16/12:00pm 15.5 11.1 11.6 77 2.1 SW 26 41 14 22 1021.1 1021.2 0.2
16/11:30am 18.0 13.1 8.3 53 5.0 SW 24 32 13 17 1020.9 - 0.2
16/11:00am 15.7 11.2 11.5 76 2.3 SW 26 35 14 19 1021.2 - 0.2
16/10:30am 17.5 13.4 10.0 61 4.0 SW 22 35 12 19 1021.2 - 0.0
16/10:00am 16.8 12.2 9.6 62 3.8 SW 24 32 13 17 1021.4 - 0.0
16/09:30am 16.6 12.9 10.0 65 3.5 SW 20 32 11 17 1021.2 - 0.0
16/09:00am 15.8 12.3 10.3 70 2.9 SW 19 24 10 13 1021.1 1021.2 0.4
16/08:30am 14.7 12.2 10.9 78 2.0 SW 15 19 8 10 1020.9 - 0.4
16/08:00am 13.8 12.3 11.8 88 1.1 W 11 15 6 8 1020.6 - 0.4
16/07:30am 13.4 11.6 10.7 84 1.4 SW 11 17 6 9 1020.4 - 0.4
16/07:00am 13.0 9.2 11.1 88 1.0 SW 22 30 12 16 1020.2 - 0.4
16/06:30am 12.9 13.4 11.5 91 0.7 CALM 0 6 0 3 1019.8 - 0.4
16/06:00am 13.1 9.0 11.3 89 0.9 WSW 24 33 13 18 1019.8 1019.9 0.4
16/05:30am 13.8 10.1 9.3 74 2.3 W 19 24 10 13 1019.3 - 0.2
16/05:00am 13.5 10.2 9.4 76 2.1 SSW 17 22 9 12 1019.2 - 0.2
16/04:30am 13.6 11.0 9.3 75 2.2 SSW 13 19 7 10 1019.2 - 0.2
16/04:00am 14.4 11.1 8.2 66 3.1 SW 15 20 8 11 1019.2 - 0.2
16/03:30am 14.8 9.3 6.1 56 4.2 WSW 24 32 13 17 1019.2 - 0.2
16/03:00am 14.6 11.1 7.3 61 3.6 W 15 20 8 11 1019.4 1019.5 0.2
16/02:30am 13.7 10.1 6.6 62 3.4 W 15 19 8 10 1019.5 - 0.2
16/02:00am 14.4 10.7 6.2 58 3.9 WSW 15 20 8 11 1019.7 - 0.2
16/01:30am 14.6 11.2 6.0 56 4.1 W 13 19 7 10 1019.8 - 0.2
16/01:00am 14.5 10.8 6.2 57 4.0 SW 15 19 8 10 1019.9 - 0.2
16/12:30am 14.3 11.6 7.2 62 3.5 SW 11 15 6 8 1019.9 - 0.2
16/12:00am 14.3 12.0 7.4 63 3.4 WSW 9 15 5 8 1020.2 1020.3 0.2
 
Date/Time
WST
Temp
°C
App
Temp
°C
Dew
Point
°C
Rel
Hum
%
Delta-T
°C
Wind Press
QNH
hPa
Press
MSL
hPa
Rain since
9am
mm
Dir  Spd
km/h
Gust
km/h
Spd
kts
Gust
kts
15/11:30pm 14.1 12.4 8.5 69 2.8 SW 7 11 4 6 1020.5 - 0.2
15/11:00pm 14.8 10.5 6.8 58 3.9 SW 19 24 10 13 1020.8 - 0.2
15/10:30pm 14.6 11.6 7.5 62 3.5 SW 13 19 7 10 1021.0 - 0.2
15/10:00pm 14.5 11.5 5.9 56 4.1 SW 11 15 6 8 1021.1 - 0.2
15/09:30pm 14.1 11.0 5.7 57 4.0 WSW 11 17 6 9 1021.3 - 0.2
15/09:00pm 14.2 9.8 4.7 53 4.4 SSW 17 20 9 11 1021.4 1021.5 0.2
15/08:30pm 12.7 9.5 6.9 68 2.8 SSW 13 15 7 8 1021.4 - 0.2
15/08:00pm 12.5 9.1 5.8 63 3.1 SSW 13 15 7 8 1021.5 - 0.2
15/07:30pm 14.1 10.1 5.1 54 4.2 SW 15 20 8 11 1021.3 - 0.2
15/07:00pm 12.7 9.5 6.7 67 2.9 SW 13 17 7 9 1021.2 - 0.2
15/06:30pm 12.8 9.3 7.0 68 2.8 SW 15 17 8 9 1021.0 - 0.2
15/06:00pm 13.3 9.8 7.1 66 3.0 SW 15 17 8 9 1020.6 1020.7 0.2
15/05:30pm 15.1 11.7 7.6 61 3.7 SSW 15 19 8 10 1020.5 - 0.2
15/05:00pm 15.3 10.7 6.7 56 4.2 SW 20 30 11 16 1020.3 - 0.2
15/04:30pm 16.8 11.7 3.3 40 6.2 SW 19 24 10 13 1020.1 - 0.2
15/04:00pm 17.1 11.7 2.5 37 6.6 SW 20 32 11 17 1019.9 - 0.2
15/03:30pm 17.2 11.2 3.3 39 6.4 SW 24 32 13 17 1019.8 - 0.2
15/03:00pm 17.5 11.0 2.6 37 6.8 SW 26 35 14 19 1019.7 1019.8 0.2
15/02:30pm 17.4 11.9 7.5 52 5.0 SW 26 33 14 18 1019.6 - 0.2
15/02:00pm 17.6 12.3 6.9 49 5.3 SW 24 35 13 19 1019.5 - 0.2
15/01:30pm 17.4 12.0 8.2 54 4.7 SW 26 37 14 20 1019.7 - 0.2
15/01:00pm 18.4 13.0 7.8 50 5.4 SW 26 33 14 18 1020.0 - 0.0
15/12:30pm 17.7 12.0 6.6 48 5.5 SW 26 35 14 19 1020.4 - 0.0
15/12:20pm 17.2 11.3 7.7 53 4.8 SW 28 46 15 25 1020.5 - 0.0
15/12:00pm 17.6 11.5 4.6 42 6.2 SW 26 35 14 19 1020.6 1020.7 0.0
15/11:30am 17.4 10.8 4.3 42 6.2 SW 28 39 15 21 1020.7 - 0.0
15/11:03am 17.7 11.8 7.6 51 5.1 SW 28 46 15 25 1020.7 - 0.0

Other Formats:

Comma delimited format used in spreadsheet applications
http://www.bom.gov.au/fwo/IDW60801/IDW60801.94403.axf

JavaScript Object Notation format (JSON) in row-major order
http://www.bom.gov.au/fwo/IDW60801/IDW60801.94403.json